| time (UTC) | temp C | wind direction | speed KPH | gust KPH | rain 1hr cm | rain 24hr cm | rain mn cm | humidity % | barometer mb |
| 20260507223034 | 21 | 360 | 4.8 | 16.1 | 0.00 | 0.00 | 0.00 | 32 | 1017.7 |
| 20260507221642 | 21 | 3 | 8.0 | 24.1 | 0.00 | 0.00 | 0.00 | 32 | 1017.9 |
| 20260507220038 | 21 | 4 | 4.8 | 19.3 | 0.00 | 0.00 | 0.00 | 33 | 1018.0 |
| 20260507214530 | 21 | 15 | 8.0 | 20.9 | 0.00 | 0.00 | 0.00 | 35 | 1018.1 |
| 20260507210032 | 20 | 21 | 6.4 | 20.9 | 0.00 | 0.00 | 0.00 | 37 | 1018.5 |
| 20260507204648 | 20 | 6 | 6.4 | 17.7 | 0.00 | 0.00 | 0.00 | 36 | 1018.8 |
| 20260507203032 | 20 | 37 | 6.4 | 19.3 | 0.00 | 0.00 | 0.00 | 36 | 1019.0 |
| 20260507200034 | 20 | 20 | 8.0 | 19.3 | 0.00 | 0.00 | 0.00 | 36 | 1019.2 |
| 20260507194530 | 20 | 10 | 3.2 | 11.3 | 0.00 | 0.00 | 0.00 | 39 | 1019.3 |
| 20260507193031 | 19 | 38 | 4.8 | 17.7 | 0.00 | 0.00 | 0.00 | 40 | 1019.4 |
| 20260507191529 | 19 | 24 | 6.4 | 12.9 | 0.00 | 0.00 | 0.00 | 40 | 1019.5 |
| 20260507190034 | 19 | 4 | 4.8 | 14.5 | 0.00 | 0.00 | 0.00 | 42 | 1019.6 |
| 20260507184535 | 18 | 359 | 3.2 | 11.3 | 0.00 | 0.00 | 0.00 | 46 | 1020.0 |
| 20260507173034 | 17 | 349 | 6.4 | 16.1 | 0.00 | 0.00 | 0.00 | 55 | 1020.4 |
| 20260507164644 | 16 | 338 | 6.4 | 14.5 | 0.00 | 0.00 | 0.00 | 60 | 1020.4 |
| 20260507163032 | 16 | 276 | 4.8 | 11.3 | 0.00 | 0.00 | 0.00 | 61 | 1020.4 |
| 20260507161532 | 16 | 271 | 3.2 | 11.3 | 0.00 | 0.00 | 0.00 | 62 | 1020.7 |
| 20260507160033 | 15 | 258 | 4.8 | 11.3 | 0.00 | 0.00 | 0.00 | 64 | 1020.9 |
| 20260507154531 | 15 | 250 | 6.4 | 12.9 | 0.00 | 0.00 | 0.00 | 65 | 1021.1 |
| 20260507153107 | 15 | 241 | 4.8 | 11.3 | 0.00 | 0.00 | 0.00 | 69 | 1021.1 |
| 20260507151531 | 13 | 311 | 1.6 | 8.0 | 0.00 | 0.00 | 0.00 | 73 | 1021.3 |
| 20260507150041 | 13 | 292 | 3.2 | 6.4 | 0.00 | 0.00 | 0.00 | 76 | 1021.2 |
| 20260507144534 | 13 | 326 | 1.6 | 6.4 | 0.00 | 0.00 | 0.00 | 81 | 1021.3 |
| 20260507143036 | 12 | 326 | 0.0 | 4.8 | 0.00 | 0.00 | 0.00 | 89 | 1021.2 |
| 20260507141530 | 11 | 173 | 0.0 | 6.4 | 0.00 | 0.00 | 0.00 | 92 | 1021.1 |
| 20260507140110 | 10 | 220 | 0.0 | 3.2 | 0.00 | 0.00 | 0.00 | 92 | 1021.0 |
| 20260507134538 | 7 | 244 | 0.0 | 3.2 | 0.00 | 0.00 | 0.00 | 92 | 1020.9 |
| 20260507131530 | 6 | 241 | 0.0 | 4.8 | 0.00 | 0.00 | 0.00 | 92 | 1020.9 |
| 20260507130031 | 6 | 216 | 0.0 | 0.0 | 0.00 | 0.00 | 0.00 | 92 | 1020.7 |
| 20260507123030 | 7 | 148 | 0.0 | 3.2 | 0.00 | 0.00 | 0.00 | 91 | 1020.6 |
| 20260507121535 | 7 | 202 | 0.0 | 3.2 | 0.00 | 0.00 | 0.00 | 90 | 1020.6 |
| 20260507120035 | 7 | 214 | 0.0 | 0.0 | 0.00 | 0.00 | 0.00 | 89 | 1020.5 |
| 20260507114534 | 7 | 130 | 0.0 | 0.0 | 0.00 | 0.00 | 0.00 | 89 | 1020.4 |
| 20260507113029 | 8 | 176 | 0.0 | 9.7 | 0.00 | 0.00 | 0.00 | 88 | 1020.3 |
| 20260507111531 | 8 | 161 | 0.0 | 3.2 | 0.00 | 0.00 | 0.00 | 87 | 1020.2 |
| 20260507110035 | 8 | 6 | 1.6 | 8.0 | 0.00 | 0.00 | 0.00 | 85 | 1020.1 |
| 20260507103030 | 9 | 66 | 1.6 | 6.4 | 0.00 | 0.00 | 0.00 | 82 | 1020.0 |
| 20260507101531 | 10 | 65 | 0.0 | 8.0 | 0.00 | 0.00 | 0.00 | 79 | 1019.9 |
| 20260507100045 | 11 | 54 | 0.0 | 8.0 | 0.00 | 0.00 | 0.00 | 79 | 1019.9 |
| 20260507094531 | 10 | 8 | 6.4 | 11.3 | 0.00 | 0.00 | 0.00 | 81 | 1019.9 |
| 20260507093107 | 10 | 7 | 4.8 | 12.9 | 0.00 | 0.00 | 0.00 | 82 | 1020.0 |
| 20260507091530 | 10 | 89 | 0.0 | 6.4 | 0.00 | 0.00 | 0.00 | 81 | 1020.0 |
| 20260507090031 | 11 | 33 | 1.6 | 6.4 | 0.00 | 0.00 | 0.00 | 80 | 1020.0 |
| 20260507084534 | 11 | 19 | 1.6 | 8.0 | 0.00 | 0.00 | 0.00 | 80 | 1020.0 |
| 20260507083037 | 11 | 21 | 6.4 | 12.9 | 0.00 | 0.00 | 0.00 | 80 | 1020.1 |
| 20260507080032 | 11 | 8 | 11.3 | 17.7 | 0.00 | 0.00 | 0.00 | 79 | 1020.1 |
| 20260507074535 | 12 | 2 | 11.3 | 19.3 | 0.00 | 0.00 | 0.00 | 78 | 1020.0 |
| 20260507073033 | 12 | 360 | 11.3 | 16.1 | 0.00 | 0.00 | 0.00 | 77 | 1020.0 |
| 20260507070029 | 12 | 322 | 0.0 | 3.2 | 0.00 | 0.00 | 0.00 | 75 | 1020.1 |
| 20260507064531 | 12 | 300 | 0.0 | 0.0 | 0.00 | 0.00 | 0.00 | 75 | 1020.3 |
| 20260507061608 | 12 | 15 | 3.2 | 8.0 | 0.00 | 0.00 | 0.00 | 71 | 1020.4 |
| 20260507054533 | 13 | 49 | 1.6 | 9.7 | 0.00 | 0.00 | 0.00 | 61 | 1020.6 |
| 20260507053030 | 15 | 179 | 4.8 | 11.3 | 0.00 | 0.00 | 0.00 | 58 | 1020.5 |
| 20260507051531 | 15 | 204 | 14.5 | 22.5 | 0.00 | 0.00 | 0.00 | 56 | 1020.4 |
| 20260507044534 | 15 | 208 | 6.4 | 16.1 | 0.00 | 0.00 | 0.00 | 54 | 1020.7 |
| 20260507043031 | 14 | 220 | 4.8 | 11.3 | 0.00 | 0.00 | 0.00 | 56 | 1020.7 |
| 20260507041531 | 15 | 44 | 0.0 | 3.2 | 0.00 | 0.00 | 0.00 | 53 | 1020.6 |
| 20260507040046 | 16 | 243 | 4.8 | 14.5 | 0.00 | 0.00 | 0.00 | 50 | 1020.5 |
| 20260507034643 | 16 | 203 | 3.2 | 11.3 | 0.00 | 0.00 | 0.00 | 49 | 1020.4 |
| 20260507033030 | 17 | 181 | 4.8 | 12.9 | 0.00 | 0.00 | 0.00 | 48 | 1020.2 |
| 20260507031531 | 17 | 170 | 6.4 | 12.9 | 0.00 | 0.00 | 0.00 | 48 | 1019.9 |
| 20260507030041 | 17 | 168 | 6.4 | 20.9 | 0.00 | 0.00 | 0.00 | 47 | 1019.8 |
| 20260507024534 | 17 | 149 | 6.4 | 17.7 | 0.00 | 0.00 | 0.00 | 47 | 1019.6 |
| 20260507023030 | 18 | 176 | 8.0 | 22.5 | 0.00 | 0.00 | 0.00 | 46 | 1019.6 |
| 20260507021533 | 18 | 183 | 9.7 | 22.5 | 0.00 | 0.00 | 0.00 | 45 | 1019.5 |
| 20260507020034 | 18 | 204 | 16.1 | 29.0 | 0.00 | 0.00 | 0.00 | 45 | 1019.4 |
| 20260507014552 | 18 | 190 | 9.7 | 25.7 | 0.00 | 0.00 | 0.00 | 47 | 1019.4 |
| 20260507013033 | 18 | 107 | 4.8 | 14.5 | 0.00 | 0.00 | 0.00 | 47 | 1019.3 |
| 20260507011535 | 18 | 98 | 4.8 | 16.1 | 0.00 | 0.00 | 0.00 | 47 | 1019.3 |
| 20260507010104 | 19 | 82 | 4.8 | 20.9 | 0.00 | 0.00 | 0.00 | 45 | 1019.2 |
| 20260507004531 | 20 | 138 | 6.4 | 14.5 | 0.00 | 0.00 | 0.00 | 43 | 1019.0 |
| 20260507003037 | 20 | 119 | 6.4 | 17.7 | 0.00 | 0.00 | 0.00 | 44 | 1018.9 |
| 20260507001536 | 20 | 160 | 4.8 | 16.1 | 0.00 | 0.00 | 0.00 | 44 | 1018.8 |
| 20260507000145 | 21 | 50 | 6.4 | 24.1 | 0.00 | 0.00 | 0.00 | 43 | 1018.7 |
| 20260506234531 | 21 | 144 | 4.8 | 16.1 | 0.00 | 0.00 | 0.00 | 42 | 1018.6 |
| 20260506233037 | 21 | 117 | 6.4 | 16.1 | 0.00 | 0.00 | 0.00 | 41 | 1018.6 |
| 20260506231535 | 22 | 123 | 4.8 | 16.1 | 0.00 | 0.00 | 0.00 | 41 | 1018.6 |
| 20260506230032 | 22 | 124 | 4.8 | 14.5 | 0.00 | 0.00 | 0.00 | 41 | 1018.8 |
| 20260506224531 | 22 | 243 | 6.4 | 17.7 | 0.00 | 0.00 | 0.00 | 42 | 1018.9 |